Time;durP1;ratioP1;P1;durP2;ratioP2;P2;SDS_P1;SDS_P2;PMS_P1;PMS_P2;Temp;Humidity;BMP_temperature;BMP_pressure;BME280_temperature;BME280_humidity;BME280_pressure;Samples;Min_cycle;Max_cycle;Signal;HPM_P1;HPM_P2
2021/07/11 00:00:06;;;;;;;15.50;11.37;;;19.60;99.90;;;;;;5075217;28;20234;-78
2021/07/11 00:02:33;;;;;;;13.97;11.43;;;19.60;99.90;;;;;;5074382;28;20200;-79
2021/07/11 00:05:00;;;;;;;12.93;10.17;;;19.50;99.90;;;;;;5074000;28;20488;-78
2021/07/11 00:07:26;;;;;;;16.63;11.17;;;19.40;99.90;;;;;;5074231;28;20461;-79
2021/07/11 00:09:51;;;;;;;13.70;11.37;;;19.40;99.90;;;;;;5076363;28;20894;-79
2021/07/11 00:12:17;;;;;;;13.53;11.20;;;19.40;99.90;;;;;;5077745;28;20521;-80
2021/07/11 00:14:42;;;;;;;14.80;11.50;;;19.40;99.90;;;;;;5074549;28;20193;-78
2021/07/11 00:17:08;;;;;;;12.17;10.47;;;19.40;99.90;;;;;;5076464;28;20253;-78
2021/07/11 00:19:34;;;;;;;16.23;10.90;;;19.40;99.90;;;;;;5073971;28;20182;-78
2021/07/11 00:22:01;;;;;;;12.50;10.73;;;19.40;99.90;;;;;;5073444;28;20194;-79
2021/07/11 00:24:26;;;;;;;11.53;9.80;;;19.40;99.90;;;;;;5090742;28;20158;-84
2021/07/11 00:26:52;;;;;;;11.70;10.10;;;19.30;99.90;;;;;;5080137;28;20554;-79
2021/07/11 00:29:17;;;;;;;11.27;10.17;;;19.20;99.90;;;;;;5074218;28;20266;-79
2021/07/11 00:31:43;;;;;;;12.70;10.50;;;19.10;99.90;;;;;;5073544;28;20188;-79
2021/07/11 00:34:09;;;;;;;14.80;10.63;;;19.10;99.90;;;;;;5079007;28;20172;-79
2021/07/11 00:36:35;;;;;;;13.03;10.73;;;19.20;99.90;;;;;;5075308;28;20719;-79
2021/07/11 00:39:01;;;;;;;16.20;11.27;;;19.10;99.90;;;;;;5078153;28;20452;-79
2021/07/11 00:41:26;;;;;;;13.67;11.00;;;19.00;99.90;;;;;;5077122;28;20185;-79
2021/07/11 00:43:52;;;;;;;15.47;10.20;;;19.10;99.90;;;;;;5056822;28;20178;-79
2021/07/11 00:46:17;;;;;;;13.93;10.50;;;19.00;99.90;;;;;;5073831;28;20195;-79
2021/07/11 00:48:43;;;;;;;14.83;11.17;;;18.80;99.90;;;;;;5078225;28;20375;-79
2021/07/11 00:51:09;;;;;;;14.23;11.70;;;18.80;99.90;;;;;;5057558;28;20245;-79
2021/07/11 00:53:35;;;;;;;14.20;11.97;;;18.70;99.90;;;;;;5059744;28;20224;-79
2021/07/11 00:56:00;;;;;;;13.17;11.10;;;18.60;99.90;;;;;;5074685;28;20460;-80
2021/07/11 00:58:26;;;;;;;13.27;11.10;;;18.50;99.90;;;;;;5077874;28;20169;-80
2021/07/11 01:00:56;;;;;;;16.13;11.43;;;18.40;99.90;;;;;;5059325;28;20175;-79
2021/07/11 01:03:28;;;;;;;14.13;11.43;;;18.40;99.90;;;;;;5057399;28;20199;-79
2021/07/11 01:05:55;;;;;;;14.20;10.53;;;18.40;99.90;;;;;;5075180;28;20414;-80
2021/07/11 01:08:40;;;;;;;13.23;10.87;;;18.40;99.90;;;;;;5073839;28;20406;-78
2021/07/11 01:11:09;;;;;;;15.33;11.03;;;18.40;99.90;;;;;;5074363;28;20460;-79
2021/07/11 01:13:37;;;;;;;13.60;10.90;;;18.50;99.90;;;;;;5074199;28;20956;-79
2021/07/11 01:16:07;;;;;;;15.73;10.97;;;18.50;99.90;;;;;;5059333;28;20505;-79
2021/07/11 01:18:37;;;;;;;14.70;10.97;;;18.40;99.90;;;;;;5073477;28;20501;-79
2021/07/11 01:21:09;;;;;;;13.77;10.50;;;18.40;99.90;;;;;;5074198;28;20455;-79
2021/07/11 01:23:48;;;;;;;13.90;10.97;;;18.40;99.90;;;;;;5076801;28;20430;-79
2021/07/11 01:26:15;;;;;;;12.60;10.07;;;18.40;99.90;;;;;;5057855;28;20401;-79
2021/07/11 01:28:42;;;;;;;13.50;9.47;;;18.40;99.90;;;;;;5075051;28;20901;-81
2021/07/11 01:31:08;;;;;;;15.20;11.80;;;18.40;99.90;;;;;;5076985;28;20523;-78
2021/07/11 01:33:37;;;;;;;13.73;11.13;;;18.30;99.90;;;;;;5077139;28;20497;-78
2021/07/11 01:36:04;;;;;;;18.90;10.83;;;18.20;99.90;;;;;;5072692;28;20947;-79
2021/07/11 01:38:32;;;;;;;11.97;10.03;;;18.20;99.90;;;;;;5072951;28;20398;-78
2021/07/11 01:40:58;;;;;;;11.47;9.73;;;18.20;99.90;;;;;;5075085;28;20442;-79
2021/07/11 01:43:25;;;;;;;16.20;10.53;;;18.10;99.90;;;;;;5080815;28;20437;-79
2021/07/11 01:45:53;;;;;;;12.97;10.70;;;18.10;99.90;;;;;;5079854;28;20877;-79
2021/07/11 01:48:20;;;;;;;12.03;10.50;;;18.10;99.90;;;;;;5060348;28;20417;-81
2021/07/11 01:50:51;;;;;;;13.67;10.37;;;18.10;99.90;;;;;;5078436;28;20450;-79
2021/07/11 01:53:22;;;;;;;14.27;10.53;;;18.30;99.90;;;;;;5078613;28;20433;-77
2021/07/11 01:55:49;;;;;;;12.13;9.93;;;18.20;99.90;;;;;;5060776;28;20424;-79
2021/07/11 01:58:14;;;;;;;12.20;10.23;;;18.20;99.90;;;;;;5078201;28;20402;-78
2021/07/11 02:00:43;;;;;;;11.30;10.10;;;18.20;99.90;;;;;;5080103;28;20807;-79
2021/07/11 02:03:20;;;;;;;11.93;9.40;;;18.30;99.90;;;;;;5077760;28;20289;-79
2021/07/11 02:05:46;;;;;;;12.83;9.07;;;18.40;99.90;;;;;;5062443;28;20420;-82
2021/07/11 02:08:13;;;;;;;12.97;9.93;;;18.40;99.90;;;;;;5041976;28;20422;-79
2021/07/11 02:10:39;;;;;;;12.20;9.73;;;18.40;99.90;;;;;;5077606;28;20456;-79
2021/07/11 02:13:15;;;;;;;12.57;9.93;;;18.40;99.90;;;;;;5078505;28;20852;-78
2021/07/11 02:15:44;;;;;;;12.07;9.60;;;18.30;99.90;;;;;;5077325;28;20408;-79
2021/07/11 02:18:13;;;;;;;13.60;10.50;;;18.30;99.90;;;;;;5081892;28;20402;-80
2021/07/11 02:20:40;;;;;;;11.87;10.23;;;18.20;99.90;;;;;;5082035;28;20459;-79
2021/07/11 02:23:09;;;;;;;13.23;10.97;;;18.20;99.90;;;;;;5076694;28;20424;-78
2021/07/11 02:25:35;;;;;;;12.57;11.27;;;18.00;99.90;;;;;;5079513;28;20487;-79
2021/07/11 02:28:03;;;;;;;11.57;8.87;;;17.90;99.90;;;;;;5044930;28;20422;-79
2021/07/11 02:30:39;;;;;;;13.97;10.50;;;18.00;99.90;;;;;;5077815;28;20464;-78
2021/07/11 02:33:11;;;;;;;11.50;10.37;;;18.10;99.90;;;;;;5075761;28;20467;-78
2021/07/11 02:35:45;;;;;;;13.80;9.77;;;17.90;99.90;;;;;;5079312;28;20421;-79
2021/07/11 02:38:15;;;;;;;14.80;11.10;;;17.90;99.90;;;;;;5077057;28;20408;-79
2021/07/11 02:40:41;;;;;;;12.67;9.90;;;17.80;99.90;;;;;;5078107;28;20891;-79
2021/07/11 02:43:10;;;;;;;17.90;11.23;;;17.70;99.90;;;;;;5076188;28;20441;-78
2021/07/11 02:45:37;;;;;;;11.53;8.87;;;17.70;99.90;;;;;;5078558;28;20448;-78
2021/07/11 02:48:05;;;;;;;10.87;8.33;;;17.60;99.90;;;;;;5079205;28;20437;-79
2021/07/11 02:50:32;;;;;;;12.60;9.90;;;17.70;99.90;;;;;;5076905;28;20483;-79
2021/07/11 02:52:58;;;;;;;12.07;9.60;;;17.70;99.90;;;;;;5057696;28;21104;-78
2021/07/11 02:55:28;;;;;;;13.43;10.90;;;17.60;99.90;;;;;;5078792;28;20549;-78
2021/07/11 02:57:59;;;;;;;11.40;10.00;;;17.60;99.90;;;;;;5078433;28;20403;-78
2021/07/11 03:00:24;;;;;;;13.00;10.17;;;17.60;99.90;;;;;;5078862;28;21023;-78
2021/07/11 03:02:51;;;;;;;12.70;10.13;;;17.60;99.90;;;;;;5077017;28;20465;-78
2021/07/11 03:05:23;;;;;;;12.17;9.70;;;17.60;99.90;;;;;;5075879;28;20204;-78
2021/07/11 03:07:49;;;;;;;13.33;10.63;;;17.60;99.90;;;;;;5076252;28;20421;-78
2021/07/11 03:10:18;;;;;;;12.43;10.73;;;17.60;99.90;;;;;;5074893;28;20834;-78
2021/07/11 03:12:46;;;;;;;13.70;10.40;;;17.70;99.90;;;;;;5075531;28;20425;-78
2021/07/11 03:15:13;;;;;;;13.37;9.70;;;17.90;99.90;;;;;;5075930;28;20825;-79
2021/07/11 03:17:40;;;;;;;13.20;10.50;;;17.80;99.90;;;;;;5057766;28;20784;-78
2021/07/11 03:20:06;;;;;;;11.67;9.63;;;17.80;99.90;;;;;;5059957;28;20443;-78
2021/07/11 03:22:35;;;;;;;11.63;9.10;;;17.80;99.90;;;;;;5077416;28;20441;-78
2021/07/11 03:25:04;;;;;;;11.87;9.70;;;17.80;99.90;;;;;;5076543;28;20914;-78
2021/07/11 03:27:31;;;;;;;12.13;9.80;;;17.80;99.90;;;;;;5057728;28;20409;-77
2021/07/11 03:30:07;;;;;;;12.30;9.27;;;17.70;99.90;;;;;;5076235;28;20448;-77
2021/07/11 03:32:48;;;;;;;11.57;9.60;;;17.70;99.90;;;;;;5076592;28;20432;-78
2021/07/11 03:35:14;;;;;;;11.90;9.40;;;17.80;99.90;;;;;;5076465;28;20436;-80
2021/07/11 03:37:43;;;;;;;12.13;9.90;;;17.90;99.90;;;;;;5076590;28;20414;-78
2021/07/11 03:40:11;;;;;;;11.93;9.40;;;17.90;99.90;;;;;;5074741;28;20450;-78
2021/07/11 03:42:40;;;;;;;14.73;9.60;;;18.00;99.90;;;;;;5076849;28;20516;-78
2021/07/11 03:45:08;;;;;;;12.93;9.10;;;18.10;99.90;;;;;;5075262;28;20440;-79
2021/07/11 03:47:42;;;;;;;10.40;8.33;;;18.00;99.90;;;;;;5073859;28;20853;-78
2021/07/11 03:50:09;;;;;;;10.53;9.20;;;18.00;99.90;;;;;;5075886;28;20457;-79
2021/07/11 03:52:50;;;;;;;11.93;10.17;;;17.90;99.90;;;;;;5075816;28;20533;-79
2021/07/11 03:55:18;;;;;;;14.13;10.53;;;17.70;99.90;;;;;;5076233;28;20412;-79
2021/07/11 03:57:46;;;;;;;11.53;9.10;;;17.70;99.90;;;;;;5057740;28;20475;-79
2021/07/11 04:00:15;;;;;;;12.30;9.20;;;17.90;99.90;;;;;;5075169;28;20417;-81
2021/07/11 04:02:42;;;;;;;12.63;10.10;;;17.80;99.90;;;;;;5076430;28;20498;-79
2021/07/11 04:05:09;;;;;;;15.43;11.40;;;17.80;99.90;;;;;;5075461;28;20490;-80
2021/07/11 04:07:36;;;;;;;13.43;10.13;;;17.70;99.90;;;;;;5074983;28;20419;-79
2021/07/11 04:10:04;;;;;;;11.03;9.80;;;17.80;99.90;;;;;;5055567;28;20811;-78
2021/07/11 04:12:29;;;;;;;12.53;10.40;;;17.90;99.90;;;;;;5074114;28;20421;-78
2021/07/11 04:14:58;;;;;;;13.20;10.27;;;17.90;99.90;;;;;;5075079;28;20420;-79
2021/07/11 04:17:27;;;;;;;13.77;10.40;;;17.90;99.90;;;;;;5074352;28;20178;-79
2021/07/11 04:19:56;;;;;;;14.17;10.37;;;17.90;99.90;;;;;;5073759;28;20470;-80
2021/07/11 04:22:22;;;;;;;12.23;9.33;;;17.90;99.90;;;;;;5074660;28;20437;-78
2021/07/11 04:24:49;;;;;;;10.73;9.60;;;17.90;99.90;;;;;;5073976;28;20414;-78
2021/07/11 04:27:15;;;;;;;18.17;10.10;;;17.90;99.90;;;;;;5075605;28;20464;-78
2021/07/11 04:29:42;;;;;;;12.07;10.10;;;18.00;99.90;;;;;;5057526;28;20553;-81
2021/07/11 04:32:09;;;;;;;19.70;10.33;;;18.10;99.90;;;;;;5075891;28;20422;-79
2021/07/11 04:34:35;;;;;;;14.03;10.80;;;18.30;99.90;;;;;;5075248;28;20409;-78
2021/07/11 04:37:04;;;;;;;12.10;9.87;;;18.40;99.90;;;;;;5075353;28;20781;-78
2021/07/11 04:39:30;;;;;;;10.60;9.10;;;18.40;99.90;;;;;;5073593;28;20251;-79
2021/07/11 04:41:56;;;;;;;18.17;10.27;;;18.50;99.90;;;;;;5074863;28;20441;-78
2021/07/11 04:44:24;;;;;;;13.53;9.77;;;18.60;99.90;;;;;;5073487;28;20403;-78
2021/07/11 04:46:50;;;;;;;24.03;9.93;;;18.70;99.90;;;;;;5074006;28;20425;-78
2021/07/11 04:49:15;;;;;;;15.20;10.50;;;18.70;99.90;;;;;;5072943;28;20406;-78
2021/07/11 04:51:41;;;;;;;12.10;9.47;;;18.80;99.90;;;;;;5054589;28;20198;-78
2021/07/11 04:54:07;;;;;;;12.07;9.60;;;18.80;99.90;;;;;;5072914;28;20658;-78
2021/07/11 04:56:34;;;;;;;10.70;8.70;;;18.60;99.90;;;;;;5075840;28;20202;-79
2021/07/11 04:59:00;;;;;;;12.73;10.17;;;18.70;99.90;;;;;;5058025;28;20920;-78
2021/07/11 05:01:26;;;;;;;13.33;9.70;;;18.80;99.90;;;;;;5077378;28;20554;-80
2021/07/11 05:03:52;;;;;;;11.07;9.50;;;18.80;99.90;;;;;;5077941;28;20655;-81
2021/07/11 05:06:18;;;;;;;11.63;9.40;;;18.90;99.90;;;;;;5075438;28;20418;-79
2021/07/11 05:08:44;;;;;;;11.63;9.87;;;18.90;99.90;;;;;;5076115;28;20792;-80
2021/07/11 05:11:09;;;;;;;12.40;10.33;;;19.10;99.90;;;;;;5073685;28;20574;-77
2021/07/11 05:13:35;;;;;;;12.83;9.73;;;19.00;99.90;;;;;;5073171;28;20198;-77
2021/07/11 05:16:00;;;;;;;11.23;9.57;;;19.20;99.90;;;;;;5072128;28;20179;-77
2021/07/11 05:18:26;;;;;;;12.07;9.73;;;19.30;99.90;;;;;;5073654;28;20164;-78
2021/07/11 05:20:52;;;;;;;11.60;10.40;;;19.40;99.90;;;;;;5072977;28;20172;-78
2021/07/11 05:23:17;;;;;;;10.53;9.40;;;19.50;99.90;;;;;;5054277;28;20201;-78
2021/07/11 05:25:43;;;;;;;12.00;10.10;;;19.70;99.90;;;;;;5072819;28;20175;-78
2021/07/11 05:28:11;;;;;;;10.80;9.17;;;19.80;99.90;;;;;;5038550;28;20188;-78
2021/07/11 05:30:37;;;;;;;14.17;9.70;;;19.90;99.90;;;;;;5072195;28;20290;-78
2021/07/11 05:33:03;;;;;;;12.07;9.40;;;19.90;99.90;;;;;;5072277;28;20515;-79
2021/07/11 05:35:28;;;;;;;11.70;10.40;;;20.10;99.90;;;;;;5072991;28;20184;-79
2021/07/11 05:37:54;;;;;;;12.33;9.10;;;20.40;99.90;;;;;;5072460;28;20835;-77
2021/07/11 05:40:20;;;;;;;10.60;9.50;;;20.50;99.90;;;;;;5072570;28;20171;-78
2021/07/11 05:42:46;;;;;;;11.10;9.50;;;20.60;99.90;;;;;;5072098;28;20592;-78
2021/07/11 05:45:12;;;;;;;10.67;9.17;;;20.70;99.90;;;;;;5055229;28;20613;-79
2021/07/11 05:47:40;;;;;;;11.00;9.13;;;20.90;99.90;;;;;;5054073;28;20194;-80
2021/07/11 05:50:07;;;;;;;9.60;8.60;;;21.00;99.90;;;;;;5073315;28;20458;-80
2021/07/11 05:52:33;;;;;;;12.70;9.50;;;21.30;99.90;;;;;;5075665;28;20426;-81
2021/07/11 05:54:59;;;;;;;9.50;8.50;;;21.50;99.90;;;;;;5076989;28;20783;-81
2021/07/11 05:57:27;;;;;;;10.73;9.03;;;21.50;99.90;;;;;;5076121;28;20463;-81
2021/07/11 05:59:54;;;;;;;13.33;8.97;;;21.50;99.90;;;;;;5076544;28;20168;-80
2021/07/11 06:02:20;;;;;;;10.27;8.60;;;21.60;99.90;;;;;;5076948;28;20430;-81
2021/07/11 06:04:46;;;;;;;9.87;8.70;;;21.80;99.90;;;;;;5077279;28;20493;-80
2021/07/11 06:07:11;;;;;;;9.20;8.30;;;22.00;99.90;;;;;;5077726;28;20495;-81
2021/07/11 06:09:37;;;;;;;13.03;9.40;;;22.00;99.90;;;;;;5076866;28;20287;-82
2021/07/11 06:12:02;;;;;;;9.27;7.80;;;22.00;99.90;;;;;;5077681;28;20192;-82
2021/07/11 06:14:28;;;;;;;8.87;7.97;;;22.20;99.90;;;;;;5077062;28;20168;-80
2021/07/11 06:16:54;;;;;;;9.80;7.60;;;22.30;99.90;;;;;;5077213;28;20781;-81
2021/07/11 06:19:19;;;;;;;8.20;7.07;;;22.70;99.90;;;;;;5059343;28;20275;-81
2021/07/11 06:21:45;;;;;;;7.30;6.70;;;22.90;99.90;;;;;;5076883;28;20200;-82
2021/07/11 06:24:10;;;;;;;7.80;6.93;;;23.00;99.90;;;;;;5059650;28;20263;-81
2021/07/11 06:26:36;;;;;;;9.33;7.90;;;23.10;99.90;;;;;;5077732;28;20185;-81
2021/07/11 06:29:01;;;;;;;7.63;6.40;;;23.50;99.90;;;;;;5081632;28;20184;-80
2021/07/11 06:31:27;;;;;;;9.40;7.97;;;23.80;99.90;;;;;;5080482;28;20196;-82
2021/07/11 06:33:52;;;;;;;9.03;5.93;;;24.00;99.90;;;;;;5080607;28;20618;-81
2021/07/11 06:36:18;;;;;;;6.73;6.13;;;24.00;99.90;;;;;;5080838;28;20638;-81
2021/07/11 06:38:44;;;;;;;6.07;5.47;;;24.10;99.90;;;;;;5063582;28;20698;-80
2021/07/11 06:41:10;;;;;;;6.77;6.10;;;24.30;99.90;;;;;;5062908;28;20233;-82
2021/07/11 06:43:35;;;;;;;6.80;5.93;;;24.20;99.90;;;;;;5081301;28;20510;-81
2021/07/11 06:46:01;;;;;;;5.30;4.80;;;24.40;99.90;;;;;;5081558;28;20421;-82
2021/07/11 06:48:26;;;;;;;7.80;6.27;;;24.30;99.90;;;;;;5078090;28;20199;-79
2021/07/11 06:50:52;;;;;;;5.67;5.10;;;24.40;99.90;;;;;;5066473;28;20215;-80
2021/07/11 06:53:18;;;;;;;5.63;5.10;;;24.50;99.90;;;;;;5079091;28;20218;-79
2021/07/11 06:55:43;;;;;;;5.20;4.80;;;24.60;99.90;;;;;;5079965;28;20418;-80
2021/07/11 06:58:09;;;;;;;5.07;4.57;;;24.80;99.90;;;;;;5060174;28;20250;-81
2021/07/11 07:00:34;;;;;;;4.37;4.07;;;24.80;99.90;;;;;;5078385;28;20176;-80
2021/07/11 07:03:00;;;;;;;4.73;4.33;;;24.80;99.90;;;;;;5077507;28;20192;-80
2021/07/11 07:05:26;;;;;;;4.87;4.47;;;24.80;99.90;;;;;;5077440;28;20168;-79
2021/07/11 07:07:52;;;;;;;4.80;4.23;;;24.60;99.90;;;;;;5059331;28;20779;-80
2021/07/11 07:10:18;;;;;;;7.83;4.80;;;24.30;99.90;;;;;;5077612;28;20200;-80
2021/07/11 07:12:44;;;;;;;4.73;4.10;;;24.60;99.90;;;;;;5077158;28;21111;-81
2021/07/11 07:15:11;;;;;;;4.70;4.30;;;24.80;99.90;;;;;;5077165;28;20643;-80
2021/07/11 07:17:37;;;;;;;3.80;3.50;;;25.00;99.90;;;;;;5077351;28;20418;-79
2021/07/11 07:20:07;;;;;;;6.40;3.97;;;25.00;99.90;;;;;;5077524;28;20410;-80
2021/07/11 07:22:34;;;;;;;5.60;4.50;;;25.00;99.90;;;;;;5079077;28;20207;-82
2021/07/11 07:25:00;;;;;;;4.13;3.73;;;25.10;99.90;;;;;;5060046;28;20804;-80
2021/07/11 07:27:25;;;;;;;8.67;4.93;;;25.10;99.90;;;;;;5078874;28;20410;-81
2021/07/11 07:29:51;;;;;;;4.30;3.90;;;25.20;99.90;;;;;;5078417;28;20199;-80
2021/07/11 07:32:16;;;;;;;4.00;3.60;;;25.20;99.90;;;;;;5077655;28;20275;-81
2021/07/11 07:34:42;;;;;;;4.90;4.30;;;25.30;99.90;;;;;;5078032;28;20178;-81
2021/07/11 07:37:08;;;;;;;5.00;4.57;;;25.20;99.90;;;;;;5076773;28;20230;-80
2021/07/11 07:39:34;;;;;;;3.80;3.33;;;25.30;99.90;;;;;;5075840;28;20167;-81
2021/07/11 07:41:59;;;;;;;4.57;4.17;;;25.30;99.90;;;;;;5076550;28;20465;-80
2021/07/11 07:44:25;;;;;;;5.20;4.57;;;25.10;99.90;;;;;;5077345;28;20563;-79
2021/07/11 07:46:50;;;;;;;5.47;4.60;;;25.20;99.90;;;;;;5060590;28;20219;-81
2021/07/11 07:49:19;;;;;;;7.37;6.07;;;25.10;99.90;;;;;;5076153;28;20302;-81
2021/07/11 07:51:45;;;;;;;5.63;5.13;;;25.20;99.90;;;;;;5075329;28;20238;-81
2021/07/11 07:54:10;;;;;;;5.93;5.10;;;25.10;99.90;;;;;;5075862;28;20395;-80
2021/07/11 07:56:36;;;;;;;5.90;5.30;;;25.10;99.90;;;;;;5075314;28;20171;-80
2021/07/11 07:59:02;;;;;;;5.53;5.03;;;25.30;99.90;;;;;;5057438;28;20179;-80
2021/07/11 08:01:28;;;;;;;5.70;4.80;;;25.10;99.90;;;;;;5074852;28;20204;-80
2021/07/11 08:03:53;;;;;;;5.20;4.70;;;24.90;99.90;;;;;;5074992;28;20456;-80
2021/07/11 08:06:19;;;;;;;5.17;4.67;;;25.00;99.90;;;;;;5056725;28;20198;-80
2021/07/11 08:08:45;;;;;;;6.73;5.07;;;25.10;99.90;;;;;;5075003;28;20199;-79
2021/07/11 08:11:10;;;;;;;5.43;4.93;;;25.20;99.90;;;;;;5074909;28;20192;-80
2021/07/11 08:13:37;;;;;;;5.23;4.83;;;25.30;99.90;;;;;;5074939;28;20199;-79
2021/07/11 08:16:05;;;;;;;7.20;5.70;;;25.20;99.90;;;;;;5085846;28;20189;-81
2021/07/11 08:18:31;;;;;;;23.47;6.07;;;25.40;99.90;;;;;;5058923;28;20422;-81
2021/07/11 08:20:56;;;;;;;5.20;4.70;;;25.40;99.90;;;;;;5060522;28;20418;-81
2021/07/11 08:23:22;;;;;;;5.07;4.63;;;25.50;99.90;;;;;;5078761;28;20698;-80
2021/07/11 08:25:48;;;;;;;5.23;4.73;;;25.50;99.90;;;;;;5077735;28;20176;-79
2021/07/11 08:28:14;;;;;;;4.87;4.47;;;25.60;99.90;;;;;;5077623;28;20225;-80
2021/07/11 08:30:40;;;;;;;5.03;4.63;;;25.50;99.90;;;;;;5077629;28;20450;-82
2021/07/11 08:33:05;;;;;;;4.40;4.00;;;25.60;99.90;;;;;;5077881;28;20191;-81
2021/07/11 08:35:31;;;;;;;4.50;4.10;;;25.50;99.90;;;;;;5078329;28;20186;-81
2021/07/11 08:37:56;;;;;;;4.17;3.77;;;25.30;99.90;;;;;;5077785;28;20516;-80
2021/07/11 08:40:22;;;;;;;4.00;3.70;;;25.40;99.90;;;;;;5077821;28;20172;-81
2021/07/11 08:42:51;;;;;;;5.90;4.20;;;25.30;99.90;;;;;;5077193;28;20195;-81
2021/07/11 08:45:17;;;;;;;4.50;4.07;;;25.40;99.90;;;;;;5077662;28;20246;-80
2021/07/11 08:47:46;;;;;;;4.20;3.90;;;25.30;99.90;;;;;;5077949;28;20450;-80
2021/07/11 08:50:16;;;;;;;4.30;3.90;;;25.20;99.90;;;;;;5076424;28;20453;-80
2021/07/11 08:52:44;;;;;;;4.83;3.80;;;25.20;99.90;;;;;;5076909;28;20433;-81
2021/07/11 08:55:15;;;;;;;3.90;3.60;;;25.30;99.90;;;;;;5059546;28;20461;-81
2021/07/11 08:57:46;;;;;;;3.60;3.30;;;25.20;99.90;;;;;;5060189;28;20422;-81
2021/07/11 09:00:12;;;;;;;4.20;3.77;;;25.30;99.90;;;;;;5077325;28;20410;-81
2021/07/11 09:02:37;;;;;;;3.60;3.30;;;25.20;99.90;;;;;;5077942;28;20434;-79
2021/07/11 09:05:03;;;;;;;4.37;3.97;;;25.30;99.90;;;;;;5075974;28;20411;-79
2021/07/11 09:07:30;;;;;;;4.50;4.10;;;25.30;99.90;;;;;;5077527;28;20177;-80
2021/07/11 09:10:02;;;;;;;5.40;4.50;;;25.40;99.90;;;;;;5059430;28;20461;-80
2021/07/11 09:12:29;;;;;;;4.80;4.33;;;25.40;99.90;;;;;;5077788;28;20418;-81
2021/07/11 09:14:54;;;;;;;5.13;4.63;;;25.50;99.90;;;;;;5077720;28;20410;-81
2021/07/11 09:17:20;;;;;;;5.00;4.30;;;25.50;99.90;;;;;;5077088;28;20433;-80
2021/07/11 09:19:48;;;;;;;5.10;4.60;;;25.50;99.90;;;;;;5077604;28;20179;-80
2021/07/11 09:22:24;;;;;;;4.07;3.67;;;25.50;99.90;;;;;;5071237;28;20211;-81
2021/07/11 09:25:00;;;;;;;4.47;4.17;;;25.60;99.90;;;;;;5058802;28;20459;-80
2021/07/11 09:27:28;;;;;;;4.30;3.90;;;25.60;99.90;;;;;;5076808;28;20455;-80
2021/07/11 09:29:59;;;;;;;4.50;3.60;;;25.60;99.90;;;;;;5076577;28;20454;-80
2021/07/11 09:32:33;;;;;;;4.43;4.00;;;25.60;99.90;;;;;;5058471;28;20465;-80
2021/07/11 09:35:16;;;;;;;4.33;3.37;;;25.60;99.90;;;;;;5076573;28;20795;-79
2021/07/11 09:37:46;;;;;;;3.70;3.40;;;25.60;99.90;;;;;;5042429;28;20425;-80
2021/07/11 09:40:15;;;;;;;4.60;3.77;;;25.60;99.90;;;;;;5058493;28;20784;-80
2021/07/11 09:42:43;;;;;;;3.63;3.33;;;25.60;99.90;;;;;;5075641;28;20462;-80
2021/07/11 09:45:35;;;;;;;4.53;4.13;;;25.50;99.90;;;;;;5042330;28;20414;-81
2021/07/11 09:48:12;;;;;;;5.67;4.00;;;25.50;99.90;;;;;;5076805;28;20430;-80
2021/07/11 09:50:38;;;;;;;4.47;4.07;;;25.60;99.90;;;;;;5076399;28;20450;-80
2021/07/11 09:53:08;;;;;;;4.17;3.73;;;25.60;99.90;;;;;;5076038;28;20414;-79
2021/07/11 09:55:36;;;;;;;3.73;3.33;;;25.60;99.90;;;;;;5058339;28;20410;-81
2021/07/11 09:58:08;;;;;;;4.53;3.90;;;25.70;99.90;;;;;;5076805;28;20782;-79
2021/07/11 10:00:42;;;;;;;3.90;3.60;;;25.70;99.90;;;;;;5077510;28;20452;-80
2021/07/11 10:03:15;;;;;;;3.77;3.47;;;25.70;99.90;;;;;;5061637;28;20441;-79
2021/07/11 10:05:41;;;;;;;4.50;4.10;;;25.70;99.70;;;;;;5080585;28;20395;-80
2021/07/11 10:08:07;;;;;;;4.93;4.30;;;25.60;98.30;;;;;;5080756;28;20477;-80
2021/07/11 10:10:34;;;;;;;4.13;3.77;;;25.60;99.30;;;;;;5081109;28;21012;-81
2021/07/11 10:13:03;;;;;;;4.20;3.80;;;25.60;99.70;;;;;;5080990;28;20452;-78
2021/07/11 10:15:32;;;;;;;6.00;4.63;;;25.60;99.90;;;;;;5063121;28;20482;-80
2021/07/11 10:18:09;;;;;;;6.20;4.43;;;25.70;98.50;;;;;;5061940;28;20406;-80
2021/07/11 10:20:41;;;;;;;4.13;3.80;;;25.70;98.00;;;;;;5080656;28;20560;-80
2021/07/11 10:23:08;;;;;;;4.93;3.80;;;25.80;97.20;;;;;;5080394;28;20426;-80
2021/07/11 10:25:36;;;;;;;3.53;3.23;;;25.80;97.30;;;;;;5080455;28;20406;-80
2021/07/11 10:28:11;;;;;;;4.43;3.73;;;25.80;97.10;;;;;;5080822;28;20434;-81
2021/07/11 10:30:42;;;;;;;4.40;3.70;;;26.00;97.30;;;;;;5080521;28;20461;-77
2021/07/11 10:33:15;;;;;;;4.00;3.70;;;26.10;96.80;;;;;;5079909;28;20515;-79
2021/07/11 10:36:07;;;;;;;3.50;3.20;;;26.10;97.10;;;;;;5080148;28;20438;-79
2021/07/11 10:38:43;;;;;;;4.10;3.70;;;26.10;95.70;;;;;;5058494;28;20402;-80
2021/07/11 10:41:24;;;;;;;3.93;3.53;;;26.00;95.10;;;;;;5080304;28;20418;-79
2021/07/11 10:44:19;;;;;;;4.57;4.13;;;26.00;94.60;;;;;;5080692;28;20410;-80
2021/07/11 10:47:00;;;;;;;3.80;3.50;;;25.90;93.90;;;;;;5080742;28;20426;-81
2021/07/11 10:49:34;;;;;;;4.33;3.93;;;25.90;94.00;;;;;;5080165;28;20485;-81
2021/07/11 10:52:05;;;;;;;4.03;3.70;;;25.90;94.30;;;;;;5081305;28;20429;-81
2021/07/11 10:54:33;;;;;;;3.63;3.33;;;25.90;95.20;;;;;;5081661;28;21040;-81
2021/07/11 10:57:08;;;;;;;4.07;3.67;;;26.10;94.20;;;;;;5080065;28;20770;-81
2021/07/11 10:59:40;;;;;;;3.30;3.00;;;26.10;94.00;;;;;;5061759;28;20445;-80
2021/07/11 11:02:19;;;;;;;5.40;4.20;;;26.10;93.50;;;;;;5079848;28;20418;-79
2021/07/11 11:04:47;;;;;;;4.20;3.47;;;26.10;93.60;;;;;;5079667;28;20402;-80
2021/07/11 11:07:19;;;;;;;4.07;3.70;;;26.20;94.10;;;;;;5079305;28;20932;-80
2021/07/11 11:09:49;;;;;;;4.30;3.90;;;26.30;93.30;;;;;;5078991;28;20390;-80
2021/07/11 11:12:28;;;;;;;4.80;3.60;;;26.30;92.40;;;;;;5078831;28;20426;-79
2021/07/11 11:15:11;;;;;;;4.20;3.80;;;26.30;91.30;;;;;;5061291;28;20816;-80
2021/07/11 11:17:37;;;;;;;4.33;3.90;;;26.40;91.60;;;;;;5079010;28;20414;-80
2021/07/11 11:20:15;;;;;;;4.40;3.73;;;26.40;92.40;;;;;;5061187;28;20517;-80
2021/07/11 11:22:54;;;;;;;5.60;4.80;;;26.50;89.60;;;;;;5081800;28;20187;-79
2021/07/11 11:25:21;;;;;;;3.60;3.30;;;26.50;88.30;;;;;;5078745;28;20516;-80
2021/07/11 11:27:51;;;;;;;4.37;3.13;;;26.50;87.10;;;;;;5080092;28;20414;-79
2021/07/11 11:30:23;;;;;;;4.47;3.80;;;26.60;89.90;;;;;;5078209;28;20484;-80
2021/07/11 11:32:54;;;;;;;3.53;3.23;;;26.80;90.00;;;;;;5078569;28;20425;-80
2021/07/11 11:35:25;;;;;;;4.23;3.83;;;26.70;83.10;;;;;;5078717;28;20442;-80
2021/07/11 11:37:56;;;;;;;3.30;3.00;;;26.80;85.20;;;;;;5062075;28;20402;-81
2021/07/11 11:40:23;;;;;;;4.33;2.90;;;26.70;83.70;;;;;;5078259;28;20493;-81
2021/07/11 11:42:52;;;;;;;3.77;3.03;;;26.70;81.20;;;;;;5077481;28;20430;-80
2021/07/11 11:45:19;;;;;;;3.13;2.93;;;26.70;79.80;;;;;;5078031;28;20406;-80
2021/07/11 11:47:56;;;;;;;2.97;2.77;;;26.70;79.00;;;;;;5076768;28;20429;-80
2021/07/11 11:50:22;;;;;;;3.03;2.77;;;26.70;77.70;;;;;;5059802;28;20461;-79
2021/07/11 11:52:47;;;;;;;3.63;3.23;;;26.60;78.20;;;;;;5076428;28;20457;-79
2021/07/11 11:55:14;;;;;;;3.63;3.33;;;26.70;80.30;;;;;;5077958;28;20245;-79
2021/07/11 11:57:41;;;;;;;3.83;2.70;;;26.90;78.70;;;;;;5058951;28;20217;-80
2021/07/11 12:00:18;;;;;;;4.30;3.67;;;27.00;77.40;;;;;;5076240;28;20410;-79
2021/07/11 12:02:45;;;;;;;2.60;2.23;;;27.00;77.00;;;;;;5058103;28;20442;-80
2021/07/11 12:05:13;;;;;;;2.83;2.63;;;27.00;74.50;;;;;;5076057;28;20425;-80
2021/07/11 12:07:39;;;;;;;3.43;3.13;;;27.10;73.70;;;;;;5075756;28;20796;-80
2021/07/11 12:10:05;;;;;;;3.20;2.90;;;27.20;74.30;;;;;;5076599;28;20498;-81
2021/07/11 12:12:31;;;;;;;3.00;2.80;;;27.10;75.00;;;;;;5076174;28;20456;-79
2021/07/11 12:14:56;;;;;;;3.07;2.87;;;27.20;74.10;;;;;;5077295;28;20505;-81
2021/07/11 12:17:22;;;;;;;2.87;2.30;;;27.20;72.00;;;;;;5061449;28;20171;-80
2021/07/11 12:19:57;;;;;;;3.03;2.83;;;27.30;73.20;;;;;;5078254;28;20172;-80
2021/07/11 12:22:38;;;;;;;2.90;2.70;;;27.40;73.90;;;;;;5077847;28;20573;-80
2021/07/11 12:25:15;;;;;;;2.97;2.60;;;27.50;75.20;;;;;;5078998;28;20481;-81
2021/07/11 12:27:42;;;;;;;3.53;3.23;;;27.50;74.20;;;;;;5060533;28;20421;-82
2021/07/11 12:30:20;;;;;;;3.20;3.00;;;27.30;75.20;;;;;;5078299;28;20454;-81
2021/07/11 12:32:50;;;;;;;4.00;3.43;;;27.20;75.10;;;;;;5077671;28;20441;-81
2021/07/11 12:35:24;;;;;;;4.23;3.20;;;27.10;76.10;;;;;;5078353;28;20773;-79
2021/07/11 12:38:00;;;;;;;3.50;3.20;;;27.20;75.60;;;;;;5077962;28;20409;-81
2021/07/11 12:40:35;;;;;;;3.80;3.50;;;27.20;76.60;;;;;;5043597;28;20517;-80
2021/07/11 12:43:06;;;;;;;3.40;3.10;;;27.20;75.40;;;;;;5078787;28;20433;-80
2021/07/11 12:45:32;;;;;;;3.30;3.00;;;27.20;75.50;;;;;;5059956;28;20426;-81